Time;durP1;ratioP1;P1;durP2;ratioP2;P2;SDS_P1;SDS_P2;PMS_P1;PMS_P2;Temp;Humidity;BMP_temperature;BMP_pressure;BME280_temperature;BME280_humidity;BME280_pressure;Samples;Min_cycle;Max_cycle;Signal;HPM_P1;HPM_P2
2021/03/07 00:01:44;;;;;;;13.88;9.93;;;;;;;-1.39;100.00;102511.31;4968155;28;20038;-81
2021/03/07 00:04:10;;;;;;;12.38;9.30;;;;;;;-1.51;100.00;102506.41;4983120;28;20499;-80
2021/03/07 00:06:35;;;;;;;14.27;10.55;;;;;;;-1.51;100.00;102507.25;4982553;28;20118;-81
2021/03/07 00:09:00;;;;;;;14.40;9.85;;;;;;;-1.51;100.00;102511.66;4967504;28;20034;-81
2021/03/07 00:11:26;;;;;;;13.40;9.82;;;;;;;-1.47;100.00;102513.28;4981726;28;20050;-80
2021/03/07 00:13:52;;;;;;;13.68;9.20;;;;;;;-1.60;100.00;102505.75;4978194;28;20053;-80
2021/03/07 00:16:17;;;;;;;12.32;9.75;;;;;;;-1.55;100.00;102507.38;4983243;28;20532;-84
2021/03/07 00:18:42;;;;;;;14.93;9.10;;;;;;;-1.51;100.00;102506.41;4983856;28;20045;-83
2021/03/07 00:21:08;;;;;;;11.48;9.73;;;;;;;-1.53;100.00;102500.31;4983800;28;20042;-82
2021/03/07 00:23:33;;;;;;;12.50;9.55;;;;;;;-1.61;100.00;102504.03;4982630;28;20065;-81
2021/03/07 00:25:59;;;;;;;14.20;9.48;;;;;;;-1.72;100.00;102500.84;4978477;28;20122;-79
2021/03/07 00:28:24;;;;;;;15.07;10.07;;;;;;;-1.71;100.00;102505.19;4962058;28;20051;-82
2021/03/07 00:30:49;;;;;;;16.42;10.38;;;;;;;-1.67;100.00;102501.59;4970989;28;20057;-79
2021/03/07 00:33:15;;;;;;;13.25;9.25;;;;;;;-1.72;100.00;102506.13;4980949;28;20514;-80
2021/03/07 00:35:40;;;;;;;13.55;9.75;;;;;;;-1.71;100.00;102506.97;4984507;28;20122;-79
2021/03/07 00:38:05;;;;;;;13.82;9.82;;;;;;;-1.71;100.00;102505.19;4979542;28;20046;-84
2021/03/07 00:40:31;;;;;;;13.65;9.77;;;;;;;-1.74;100.00;102500.03;4994750;28;20405;-81
2021/03/07 00:42:56;;;;;;;12.48;9.25;;;;;;;-1.73;100.00;102496.47;4980718;28;20035;-82
2021/03/07 00:45:22;;;;;;;15.98;10.20;;;;;;;-1.84;100.00;102501.22;4967529;28;20035;-78
2021/03/07 00:47:47;;;;;;;14.50;9.85;;;;;;;-1.87;100.00;102496.88;4976744;28;20038;-79
2021/03/07 00:50:18;;;;;;;15.25;9.77;;;;;;;-1.91;100.00;102497.00;4976583;28;20035;-80
2021/03/07 00:52:43;;;;;;;13.38;9.52;;;;;;;-1.93;100.00;102498.81;4959168;28;20151;-79
2021/03/07 00:55:09;;;;;;;15.88;10.50;;;;;;;-1.89;100.00;102497.84;4973386;28;20491;-82
2021/03/07 00:57:34;;;;;;;13.60;9.32;;;;;;;-1.89;100.00;102495.19;4961606;28;20039;-77
2021/03/07 01:00:00;;;;;;;15.23;10.23;;;;;;;-1.90;100.00;102493.44;4974332;28;20034;-78
2021/03/07 01:02:28;;;;;;;18.75;10.07;;;;;;;-1.93;100.00;102488.28;4994110;28;20045;-80
2021/03/07 01:04:53;;;;;;;15.50;10.18;;;;;;;-1.98;100.00;102488.44;4971195;28;20506;-82
2021/03/07 01:07:20;;;;;;;15.98;9.70;;;;;;;-1.97;100.00;102484.03;4962722;28;20043;-83
2021/03/07 01:09:46;;;;;;;13.30;10.38;;;;;;;-2.01;100.00;102485.00;4970406;28;20045;-84
2021/03/07 01:12:11;;;;;;;14.63;10.27;;;;;;;-2.02;100.00;102481.50;4972321;28;20055;-79
2021/03/07 01:14:37;;;;;;;17.05;10.85;;;;;;;-2.03;100.00;102479.78;4973074;28;20085;-81
2021/03/07 01:17:02;;;;;;;14.10;9.50;;;;;;;-2.12;100.00;102480.03;4965268;28;20081;-84
2021/03/07 01:19:30;;;;;;;14.95;10.25;;;;;;;-2.18;100.00;102473.19;4974281;28;20035;-83
2021/03/07 01:21:56;;;;;;;16.75;11.75;;;;;;;-2.11;100.00;102469.47;4978641;28;20072;-79
2021/03/07 01:24:21;;;;;;;15.57;10.85;;;;;;;-2.09;100.00;102461.53;4977932;28;20082;-78
2021/03/07 01:26:46;;;;;;;20.63;10.55;;;;;;;-2.24;100.00;102470.72;4992285;28;20129;-83
2021/03/07 01:29:12;;;;;;;16.90;11.48;;;;;;;-2.27;100.00;102468.16;4980896;28;20046;-77
2021/03/07 01:31:37;;;;;;;17.05;11.48;;;;;;;-2.25;100.00;102463.72;4970496;28;20072;-81
2021/03/07 01:34:03;;;;;;;17.50;12.43;;;;;;;-2.22;100.00;102453.09;4962898;28;20051;-80
2021/03/07 01:36:28;;;;;;;18.65;11.13;;;;;;;-2.27;100.00;102448.00;4969649;28;21507;-79
2021/03/07 01:38:53;;;;;;;17.95;11.57;;;;;;;-2.27;100.00;102449.75;4975639;28;20039;-82
2021/03/07 01:41:19;;;;;;;18.67;11.55;;;;;;;-2.33;100.00;102439.38;4964790;28;20101;-81
2021/03/07 01:43:44;;;;;;;13.93;10.55;;;;;;;-2.39;100.00;102437.78;4975184;28;20855;-82
2021/03/07 01:46:09;;;;;;;14.57;11.02;;;;;;;-2.38;100.00;102441.28;4970070;28;20034;-85
2021/03/07 01:48:35;;;;;;;16.30;10.95;;;;;;;-2.43;100.00;102435.28;4975674;28;20060;-85
2021/03/07 01:51:00;;;;;;;14.90;9.52;;;;;;;-2.51;100.00;102430.22;4983099;28;20113;-80
2021/03/07 01:53:26;;;;;;;16.77;11.18;;;;;;;-2.53;100.00;102422.41;4971197;28;20039;-81
2021/03/07 01:55:52;;;;;;;14.90;10.27;;;;;;;-2.47;100.00;102421.38;4997275;28;20133;-80
2021/03/07 01:58:18;;;;;;;15.00;10.77;;;;;;;-2.41;100.00;102415.09;4984007;28;20125;-85
2021/03/07 02:00:44;;;;;;;17.15;11.57;;;;;;;-2.44;100.00;102412.53;4981104;28;20546;-82
2021/03/07 02:03:09;;;;;;;17.55;10.70;;;;;;;-2.46;100.00;102409.09;4965988;28;20495;-82
2021/03/07 02:05:34;;;;;;;15.57;10.75;;;;;;;-2.54;100.00;102399.63;4989541;28;20303;-80
2021/03/07 02:08:01;;;;;;;17.08;10.95;;;;;;;-2.48;100.00;102400.38;4981469;28;20112;-83
2021/03/07 02:11:02;;;;;;;13.63;10.98;;;;;;;-2.59;100.00;102401.53;4984393;28;20048;-79
2021/03/07 02:13:35;;;;;;;17.65;11.70;;;;;;;-2.51;100.00;102394.28;4982705;28;20394;-83
2021/03/07 02:16:13;;;;;;;17.52;11.73;;;;;;;-2.56;100.00;102396.19;4985020;28;20058;-82
2021/03/07 02:18:40;;;;;;;18.10;11.65;;;;;;;-2.57;100.00;102390.97;4982279;28;20054;-84
2021/03/07 02:21:15;;;;;;;17.65;11.60;;;;;;;-2.58;100.00;102394.50;4983543;28;20434;-83
2021/03/07 02:23:55;;;;;;;19.10;13.15;;;;;;;-2.55;100.00;102390.03;4979790;28;20054;-79
2021/03/07 02:26:20;;;;;;;22.27;12.18;;;;;;;-2.60;100.00;102385.78;4976585;28;20046;-83
2021/03/07 02:28:48;;;;;;;19.17;11.82;;;;;;;-2.63;100.00;102386.72;4976638;28;20064;-85
2021/03/07 02:31:14;;;;;;;16.52;10.63;;;;;;;-2.68;100.00;102385.13;4961216;28;20030;-82
2021/03/07 02:33:42;;;;;;;20.17;12.30;;;;;;;-2.63;100.00;102378.84;4981514;28;20046;-78
2021/03/07 02:36:14;;;;;;;15.82;10.80;;;;;;;-2.76;100.00;102383.56;4979609;28;20415;-79
2021/03/07 02:38:43;;;;;;;18.45;12.55;;;;;;;-2.74;100.00;102379.13;4978979;28;20553;-79
2021/03/07 02:41:12;;;;;;;17.73;12.15;;;;;;;-2.58;100.00;102374.34;4982065;28;20046;-81
2021/03/07 02:43:42;;;;;;;16.15;11.35;;;;;;;-2.66;100.00;102373.66;4980259;28;20054;-81
2021/03/07 02:46:12;;;;;;;15.90;11.40;;;;;;;-2.76;100.00;102359.06;4985296;28;20042;-82
2021/03/07 02:48:39;;;;;;;17.27;10.82;;;;;;;-2.77;100.00;102375.72;4964877;28;20073;-82
2021/03/07 02:51:09;;;;;;;18.35;12.05;;;;;;;-2.86;100.00;102368.06;4968551;28;20054;-82
2021/03/07 02:53:37;;;;;;;19.15;12.57;;;;;;;-2.64;100.00;102368.38;4970581;28;20038;-78
2021/03/07 02:56:14;;;;;;;19.65;11.23;;;;;;;-2.64;100.00;102350.84;4984609;28;20042;-78
2021/03/07 02:58:42;;;;;;;18.13;10.88;;;;;;;-2.64;100.00;102360.50;4976787;28;20050;-78
2021/03/07 03:01:11;;;;;;;18.50;12.40;;;;;;;-2.59;100.00;102356.84;4997373;28;20069;-80
2021/03/07 03:03:41;;;;;;;16.77;11.75;;;;;;;-2.73;100.00;102354.59;4987514;28;20078;-77
2021/03/07 03:06:09;;;;;;;16.63;12.15;;;;;;;-2.62;100.00;102345.53;4987032;28;20193;-80
2021/03/07 03:08:36;;;;;;;15.70;12.23;;;;;;;-2.67;100.00;102343.03;4982665;28;20494;-83
2021/03/07 03:11:04;;;;;;;16.80;12.20;;;;;;;-2.71;100.00;102344.00;4974508;28;20069;-83
2021/03/07 03:13:34;;;;;;;16.33;11.25;;;;;;;-2.74;100.00;102349.34;4998791;28;20042;-81
2021/03/07 03:16:02;;;;;;;15.13;11.60;;;;;;;-2.79;100.00;102343.34;4973142;28;20051;-80
2021/03/07 03:18:29;;;;;;;15.52;10.73;;;;;;;-2.88;100.00;102344.44;4990003;28;20063;-84
2021/03/07 03:20:59;;;;;;;18.55;11.70;;;;;;;-2.90;100.00;102340.16;4994734;28;20444;-79
2021/03/07 03:23:25;;;;;;;17.48;10.75;;;;;;;-2.83;100.00;102331.22;4992624;28;20121;-82
2021/03/07 03:25:51;;;;;;;16.60;12.00;;;;;;;-3.01;100.00;102333.41;4991459;28;20100;-79
2021/03/07 03:28:19;;;;;;;17.08;11.77;;;;;;;-2.98;100.00;102324.59;4990931;28;20039;-78
2021/03/07 03:30:45;;;;;;;19.83;11.32;;;;;;;-3.08;100.00;102331.88;4992926;28;20398;-78
2021/03/07 03:33:13;;;;;;;20.05;12.93;;;;;;;-3.05;100.00;102325.63;4990610;28;20156;-85
2021/03/07 03:35:39;;;;;;;20.53;14.10;;;;;;;-3.06;100.00;102324.78;4990927;28;20093;-80
2021/03/07 03:38:05;;;;;;;20.10;13.80;;;;;;;-3.01;100.00;102328.16;4987165;28;20104;-80
2021/03/07 03:40:32;;;;;;;20.27;14.27;;;;;;;-3.12;100.00;102324.94;4991962;28;20050;-76
2021/03/07 03:43:08;;;;;;;21.08;14.05;;;;;;;-3.21;100.00;102331.28;4992899;28;20126;-81
2021/03/07 03:45:38;;;;;;;20.00;14.82;;;;;;;-3.20;100.00;102327.75;4994361;28;20065;-80
2021/03/07 03:48:15;;;;;;;22.50;15.07;;;;;;;-3.18;100.00;102330.34;4993967;28;20042;-81
2021/03/07 03:50:43;;;;;;;23.67;15.07;;;;;;;-3.24;100.00;102328.75;5006556;28;20050;-84
2021/03/07 03:53:18;;;;;;;22.35;15.23;;;;;;;-3.27;100.00;102325.34;4976061;28;20046;-80
2021/03/07 03:55:49;;;;;;;25.38;15.18;;;;;;;-3.30;100.00;102328.03;4969267;28;20105;-78
2021/03/07 03:58:16;;;;;;;21.20;15.23;;;;;;;-3.33;100.00;102317.63;4962337;28;20094;-76
2021/03/07 04:00:43;;;;;;;19.67;15.43;;;;;;;-3.30;100.00;102326.28;4970904;28;20058;-83
2021/03/07 04:03:17;;;;;;;23.17;16.73;;;;;;;-3.30;100.00;102326.28;4984119;28;20672;-81
2021/03/07 04:05:49;;;;;;;23.55;16.88;;;;;;;-3.36;100.00;102322.94;4970452;28;20166;-77
2021/03/07 04:08:20;;;;;;;24.63;16.83;;;;;;;-3.35;100.00;102324.66;5008900;28;20575;-80
2021/03/07 04:10:50;;;;;;;22.83;16.20;;;;;;;-3.37;100.00;102321.19;4993622;28;20400;-83
2021/03/07 04:13:24;;;;;;;23.02;16.08;;;;;;;-3.34;100.00;102315.88;4970510;28;20035;-82
2021/03/07 04:15:51;;;;;;;25.42;17.85;;;;;;;-3.41;100.00;102317.78;4978049;28;20124;-81
2021/03/07 04:18:20;;;;;;;26.55;15.27;;;;;;;-3.38;100.00;102322.13;4981853;28;20030;-77
2021/03/07 04:20:47;;;;;;;27.95;17.38;;;;;;;-3.34;100.00;102319.34;5008569;28;20448;-78
2021/03/07 04:23:14;;;;;;;25.90;16.35;;;;;;;-3.32;100.00;102321.97;5000981;28;20062;-81
2021/03/07 04:25:41;;;;;;;25.50;17.25;;;;;;;-3.31;100.00;102315.78;4987649;28;20050;-76
2021/03/07 04:28:08;;;;;;;23.33;15.82;;;;;;;-3.33;100.00;102310.59;4990120;28;20042;-80
2021/03/07 04:30:34;;;;;;;27.23;16.73;;;;;;;-3.30;100.00;102317.53;5005361;28;20038;-80
2021/03/07 04:33:01;;;;;;;25.67;16.27;;;;;;;-3.30;100.00;102313.16;4973895;28;20041;-78
2021/03/07 04:35:28;;;;;;;26.88;16.20;;;;;;;-3.31;100.00;102316.69;5013906;28;20038;-81
2021/03/07 04:37:57;;;;;;;22.20;16.08;;;;;;;-3.24;100.00;102309.50;4987985;28;20038;-84
2021/03/07 04:40:24;;;;;;;23.45;16.23;;;;;;;-3.24;100.00;102323.50;4987115;28;20084;-83
2021/03/07 04:42:50;;;;;;;23.00;16.20;;;;;;;-3.20;100.00;102312.00;4987386;28;20050;-79
2021/03/07 04:45:16;;;;;;;23.85;16.77;;;;;;;-3.10;100.00;102307.41;5005708;28;20037;-81
2021/03/07 04:47:43;;;;;;;23.38;15.57;;;;;;;-3.08;100.00;102312.59;4987075;28;20045;-78
2021/03/07 04:50:13;;;;;;;26.40;17.17;;;;;;;-2.99;100.00;102313.22;4973714;28;20042;-80
2021/03/07 04:52:39;;;;;;;20.90;15.80;;;;;;;-3.00;100.00;102306.22;4992614;28;20061;-79
2021/03/07 04:55:06;;;;;;;23.02;16.23;;;;;;;-2.98;100.00;102303.59;4991477;28;20541;-79
2021/03/07 04:57:32;;;;;;;25.60;17.10;;;;;;;-2.95;100.00;102306.97;4989826;28;20073;-81
2021/03/07 04:59:57;;;;;;;23.45;15.75;;;;;;;-2.89;100.00;102315.59;4991025;28;20125;-78
2021/03/07 05:02:22;;;;;;;22.65;15.45;;;;;;;-2.97;100.00;102308.78;4989671;28;20038;-78
2021/03/07 05:04:49;;;;;;;23.92;16.55;;;;;;;-2.89;100.00;102310.34;4987073;28;20155;-82
2021/03/07 05:07:14;;;;;;;24.35;16.42;;;;;;;-2.85;100.00;102309.34;4983529;28;20042;-83
2021/03/07 05:09:40;;;;;;;21.63;16.10;;;;;;;-2.80;100.00;102302.22;4989225;28;20088;-79
2021/03/07 05:12:06;;;;;;;23.27;16.33;;;;;;;-2.80;100.00;102299.59;4988565;28;20038;-82
2021/03/07 05:14:31;;;;;;;24.45;16.42;;;;;;;-2.77;100.00;102299.50;4984424;28;20054;-77
2021/03/07 05:16:59;;;;;;;24.95;16.33;;;;;;;-2.80;100.00;102296.97;4986344;28;20666;-81
2021/03/07 05:19:25;;;;;;;23.33;15.55;;;;;;;-2.73;100.00;102295.91;4988710;28;20084;-84
2021/03/07 05:21:51;;;;;;;23.80;17.58;;;;;;;-2.73;100.00;102296.75;4988030;28;20510;-78
2021/03/07 05:24:16;;;;;;;27.80;17.38;;;;;;;-2.66;100.00;102294.81;4986633;28;20047;-78
2021/03/07 05:26:42;;;;;;;26.95;18.55;;;;;;;-2.71;100.00;102299.34;4978022;28;20046;-79
2021/03/07 05:29:08;;;;;;;26.33;17.65;;;;;;;-2.72;100.00;102298.47;4969396;28;20037;-80
2021/03/07 05:31:35;;;;;;;24.85;17.90;;;;;;;-2.72;100.00;102297.63;4976082;28;20054;-82
2021/03/07 05:34:00;;;;;;;25.60;17.73;;;;;;;-2.67;100.00;102300.13;4969678;28;20043;-83
2021/03/07 05:36:25;;;;;;;24.48;17.83;;;;;;;-2.64;100.00;102294.78;4976204;28;20050;-82
2021/03/07 05:38:51;;;;;;;25.95;18.05;;;;;;;-2.64;100.00;102290.41;4966780;28;20050;-80
2021/03/07 05:41:16;;;;;;;23.00;17.38;;;;;;;-2.67;100.00;102285.22;4983797;28;20034;-82
2021/03/07 05:43:43;;;;;;;26.23;18.40;;;;;;;-2.75;100.00;102295.94;4988306;28;20050;-80
2021/03/07 05:46:10;;;;;;;23.83;17.35;;;;;;;-2.68;100.00;102288.72;4989368;28;20046;-81
2021/03/07 05:48:37;;;;;;;29.02;19.15;;;;;;;-2.79;100.00;102289.06;4989046;28;23009;-79
2021/03/07 05:51:03;;;;;;;28.60;19.00;;;;;;;-2.65;100.00;102283.41;4990373;28;20529;-79
2021/03/07 05:53:31;;;;;;;25.48;17.58;;;;;;;-2.70;100.00;102282.69;4991158;28;20054;-78
2021/03/07 05:55:57;;;;;;;27.58;19.67;;;;;;;-2.57;100.00;102286.66;4990659;28;20129;-79
2021/03/07 05:58:25;;;;;;;28.60;19.52;;;;;;;-2.57;100.00;102280.56;4986245;28;20125;-82
2021/03/07 06:00:51;;;;;;;32.58;19.67;;;;;;;-2.63;100.00;102280.75;4977600;28;20099;-81
2021/03/07 06:03:20;;;;;;;29.83;20.60;;;;;;;-2.50;100.00;102277.72;4989188;28;20446;-80
2021/03/07 06:05:49;;;;;;;26.45;19.63;;;;;;;-2.47;100.00;102270.63;4991536;28;20041;-82
2021/03/07 06:08:18;;;;;;;31.70;21.80;;;;;;;-2.59;100.00;102278.00;4987933;28;20107;-82
2021/03/07 06:10:43;;;;;;;30.10;21.27;;;;;;;-2.61;100.00;102278.94;5003026;28;20049;-82
2021/03/07 06:13:10;;;;;;;26.98;21.55;;;;;;;-2.57;100.00;102270.91;4989928;28;20046;-79
2021/03/07 06:15:50;;;;;;;31.83;22.63;;;;;;;-2.52;100.00;102268.16;5005588;28;20042;-80
2021/03/07 06:18:17;;;;;;;33.38;23.77;;;;;;;-2.61;100.00;102268.44;4991842;28;20391;-80
2021/03/07 06:20:46;;;;;;;36.08;25.00;;;;;;;-2.48;100.00;102258.41;4988919;28;20038;-80
2021/03/07 06:23:11;;;;;;;36.28;24.88;;;;;;;-2.45;100.00;102258.31;4973738;28;20050;-78
2021/03/07 06:25:51;;;;;;;32.13;22.88;;;;;;;-2.51;100.00;102254.09;4985553;28;20396;-77
2021/03/07 06:28:24;;;;;;;30.98;23.15;;;;;;;-2.51;100.00;102262.84;4980165;28;20043;-83
2021/03/07 06:30:52;;;;;;;38.83;25.60;;;;;;;-2.46;100.00;102257.47;5008447;28;20057;-77
2021/03/07 06:33:33;;;;;;;37.25;25.77;;;;;;;-2.44;100.00;102254.78;4990165;28;20048;-81
2021/03/07 06:36:21;;;;;;;34.63;24.40;;;;;;;-2.45;100.00;102251.28;4982908;28;20042;-78
2021/03/07 06:38:52;;;;;;;35.55;23.60;;;;;;;-2.62;100.00;102251.81;4961411;28;20377;-81
2021/03/07 06:41:23;;;;;;;35.10;23.25;;;;;;;-2.52;100.00;102255.00;4968351;28;20047;-82
2021/03/07 06:43:49;;;;;;;36.38;24.70;;;;;;;-2.50;100.00;102261.09;4969963;28;21444;-79
2021/03/07 06:46:32;;;;;;;36.35;24.70;;;;;;;-2.46;100.00;102261.84;4974896;28;20046;-79
2021/03/07 06:48:59;;;;;;;36.38;26.52;;;;;;;-2.35;100.00;102254.53;4988400;28;20060;-80
2021/03/07 06:51:34;;;;;;;37.42;27.88;;;;;;;-2.31;100.00;102251.72;4985604;28;20042;-78
2021/03/07 06:54:19;;;;;;;38.33;27.77;;;;;;;-2.24;100.00;102257.69;4963386;28;20039;-82
2021/03/07 06:56:46;;;;;;;40.80;26.23;;;;;;;-2.28;100.00;102250.78;4981445;28;20101;-82
2021/03/07 06:59:17;;;;;;;45.50;30.88;;;;;;;-2.22;100.00;102250.59;4964584;28;20677;-82
2021/03/07 07:01:44;;;;;;;43.17;31.02;;;;;;;-2.28;100.00;102251.63;4979308;28;20387;-78
2021/03/07 07:04:11;;;;;;;43.55;32.17;;;;;;;-2.23;100.00;102254.16;4976302;28;20039;-81
2021/03/07 07:06:39;;;;;;;46.25;32.28;;;;;;;-2.02;100.00;102251.75;4997030;28;20564;-80
2021/03/07 07:09:08;;;;;;;45.28;33.15;;;;;;;-1.92;100.00;102253.22;4991131;28;20129;-82
2021/03/07 07:11:54;;;;;;;44.78;33.28;;;;;;;-1.92;100.00;102258.47;4988832;28;20046;-82
2021/03/07 07:14:45;;;;;;;46.15;34.42;;;;;;;-1.77;100.00;102262.38;4990580;28;20038;-82
2021/03/07 07:17:13;;;;;;;44.28;31.45;;;;;;;-1.84;100.00;102256.47;5002546;28;20050;-83
2021/03/07 07:19:40;;;;;;;46.93;34.77;;;;;;;-1.71;100.00;102264.81;4969038;28;20136;-81
2021/03/07 07:22:07;;;;;;;51.80;35.30;;;;;;;-1.69;100.00;102265.63;4975158;28;20038;-79
2021/03/07 07:24:32;;;;;;;50.83;36.42;;;;;;;-1.62;100.00;102273.25;4966242;28;20064;-77
2021/03/07 07:26:58;;;;;;;48.92;38.35;;;;;;;-1.59;100.00;102273.16;4971025;28;20047;-79
2021/03/07 07:29:24;;;;;;;48.25;33.53;;;;;;;-1.63;100.00;102266.28;4969541;28;20533;-82
2021/03/07 07:32:00;;;;;;;52.72;38.10;;;;;;;-1.53;100.00;102266.84;4970604;28;20042;-76
2021/03/07 07:34:30;;;;;;;50.28;34.95;;;;;;;-1.52;100.00;102273.00;4972111;28;20046;-79
2021/03/07 07:37:21;;;;;;;47.38;35.78;;;;;;;-1.46;100.00;102262.25;4970116;28;20051;-82
2021/03/07 07:39:50;;;;;;;46.72;35.25;;;;;;;-1.43;100.00;102265.63;4981458;28;20133;-79
2021/03/07 07:42:29;;;;;;;47.17;36.65;;;;;;;-1.35;100.00;102252.22;4967196;28;20122;-80
2021/03/07 07:44:58;;;;;;;45.50;35.13;;;;;;;-1.48;100.00;102258.78;4980176;28;20043;-80
2021/03/07 07:47:25;;;;;;;47.30;36.20;;;;;;;-1.33;100.00;102255.63;4964903;28;20091;-79
2021/03/07 07:49:54;;;;;;;45.90;35.00;;;;;;;-1.15;100.00;102252.41;4981831;28;20495;-80
2021/03/07 07:52:25;;;;;;;45.50;35.60;;;;;;;-1.04;100.00;102256.41;4984907;28;20042;-78
2021/03/07 07:54:55;;;;;;;44.97;33.67;;;;;;;-1.06;100.00;102250.34;4989133;28;20443;-78
2021/03/07 07:57:36;;;;;;;42.30;34.03;;;;;;;-0.97;100.00;102250.88;4985906;28;20062;-78
2021/03/07 08:00:07;;;;;;;38.67;29.20;;;;;;;-0.99;100.00;102243.94;5016368;28;20046;-78
2021/03/07 08:02:42;;;;;;;41.45;33.50;;;;;;;-0.88;100.00;102239.16;4994581;28;20117;-80
2021/03/07 08:05:19;;;;;;;42.63;33.38;;;;;;;-0.82;100.00;102233.66;4987104;28;20039;-84
2021/03/07 08:07:58;;;;;;;44.47;33.80;;;;;;;-0.74;100.00;102236.88;4997781;28;20046;-78
2021/03/07 08:10:39;;;;;;;43.50;30.65;;;;;;;-0.74;100.00;102238.66;4991398;28;20045;-79
2021/03/07 08:13:33;;;;;;;43.85;32.22;;;;;;;-0.75;100.00;102237.81;4984126;28;20049;-79
2021/03/07 08:16:00;;;;;;;44.92;32.85;;;;;;;-0.65;100.00;102246.22;4991390;28;20043;-80
2021/03/07 08:18:45;;;;;;;42.58;31.95;;;;;;;-0.61;100.00;102242.53;4994600;28;20050;-78
2021/03/07 08:21:11;;;;;;;40.75;33.47;;;;;;;-0.66;100.00;102239.25;4983858;28;20492;-78
2021/03/07 08:23:56;;;;;;;45.15;36.47;;;;;;;-0.55;100.00;102241.44;4984841;28;20045;-81
2021/03/07 08:26:24;;;;;;;46.70;37.28;;;;;;;-0.51;100.00;102235.16;4986876;28;20065;-83
2021/03/07 08:28:53;;;;;;;39.17;30.15;;;;;;;-0.48;100.00;102237.69;4991935;28;20053;-78
2021/03/07 08:31:18;;;;;;;38.47;30.97;;;;;;;-0.32;100.00;102238.81;4992210;28;20051;-79
2021/03/07 08:33:43;;;;;;;36.15;29.27;;;;;;;-0.30;100.00;102231.69;5008528;28;20285;-80
2021/03/07 08:36:21;;;;;;;36.05;30.38;;;;;;;-0.31;100.00;102234.41;4989138;28;20042;-80
2021/03/07 08:38:52;;;;;;;39.58;30.20;;;;;;;-0.31;100.00;102234.41;4977026;28;20042;-82
2021/03/07 08:41:26;;;;;;;40.33;31.80;;;;;;;-0.31;100.00;102237.91;4993930;28;20475;-81
2021/03/07 08:43:57;;;;;;;44.47;33.05;;;;;;;-0.23;100.00;102234.97;4983745;28;20065;-81
2021/03/07 08:46:26;;;;;;;44.30;34.10;;;;;;;-0.12;100.00;102231.91;4990266;28;20094;-78
2021/03/07 08:49:12;;;;;;;39.40;33.25;;;;;;;-0.09;100.00;102227.34;4988755;28;20041;-80
2021/03/07 08:51:44;;;;;;;39.15;30.58;;;;;;;0.04;100.00;102235.66;4987931;28;20550;-81
2021/03/07 08:54:12;;;;;;;37.95;29.05;;;;;;;0.07;100.00;102232.91;4986207;28;20375;-81
2021/03/07 08:56:39;;;;;;;35.53;27.30;;;;;;;0.07;100.00;102232.91;4987025;28;20046;-80
2021/03/07 08:59:05;;;;;;;34.85;28.20;;;;;;;0.02;100.00;102232.22;4988503;28;20097;-82
2021/03/07 09:01:31;;;;;;;38.60;27.90;;;;;;;0.20;100.00;102231.50;4993684;28;20157;-80
2021/03/07 09:03:59;;;;;;;39.55;29.30;;;;;;;0.28;100.00;102228.50;4982101;28;20410;-79
2021/03/07 09:06:29;;;;;;;39.70;28.15;;;;;;;0.37;100.00;102217.56;4983931;28;20117;-80
2021/03/07 09:09:09;;;;;;;38.83;27.60;;;;;;;0.43;100.00;102224.38;4986165;28;20057;-79
2021/03/07 09:11:37;;;;;;;39.65;28.98;;;;;;;0.49;100.00;102229.44;4980822;28;20129;-80
2021/03/07 09:14:02;;;;;;;32.00;24.48;;;;;;;0.61;100.00;102226.28;4987787;28;20046;-81
2021/03/07 09:16:44;;;;;;;35.38;23.92;;;;;;;0.62;100.00;102227.13;4985010;28;20089;-81
2021/03/07 09:19:25;;;;;;;26.83;20.83;;;;;;;0.63;100.00;102223.53;4971356;28;20042;-80
2021/03/07 09:22:14;;;;;;;29.23;21.95;;;;;;;0.64;100.00;102226.13;5016692;28;20136;-82
2021/03/07 09:24:49;;;;;;;32.72;23.05;;;;;;;0.81;100.00;102221.91;4983706;28;20050;-79
2021/03/07 09:27:14;;;;;;;56.58;31.67;;;;;;;0.90;100.00;102218.88;4988640;28;20046;-79
2021/03/07 09:29:59;;;;;;;32.53;22.65;;;;;;;1.01;100.00;102213.97;4978966;28;20038;-79
2021/03/07 09:32:30;;;;;;;25.40;18.08;;;;;;;1.07;100.00;102224.28;5005419;28;20065;-81
2021/03/07 09:34:57;;;;;;;23.35;17.45;;;;;;;1.14;100.00;102214.28;4986151;28;20054;-81
2021/03/07 09:37:24;;;;;;;22.65;16.65;;;;;;;1.19;100.00;102211.44;4992841;28;20471;-81
2021/03/07 09:39:50;;;;;;;18.70;14.52;;;;;;;1.29;100.00;102218.84;4988484;28;20753;-82
2021/03/07 09:42:20;;;;;;;19.77;14.80;;;;;;;1.35;100.00;102209.78;4994129;28;20038;-80
2021/03/07 09:44:45;;;;;;;;;;;;;;;1.34;100.00;102208.09;5005371;28;20239;-82
2021/03/07 09:47:13;;;;;;;16.92;11.98;;;;;;;1.38;100.00;102200.84;4988488;28;19924;-81
2021/03/07 09:49:40;;;;;;;15.93;10.95;;;;;;;1.46;100.00;102204.88;4976331;28;20042;-82
2021/03/07 09:52:06;;;;;;;12.02;8.07;;;;;;;1.55;99.70;102206.22;4973678;28;20553;-79
2021/03/07 09:54:32;;;;;;;14.45;9.32;;;;;;;1.66;98.82;102205.72;4963098;28;20066;-82
2021/03/07 09:56:57;;;;;;;12.75;8.30;;;;;;;1.81;97.51;102205.00;4987595;28;20517;-81
2021/03/07 09:59:25;;;;;;;14.70;8.40;;;;;;;1.86;95.29;102196.84;4968394;28;20096;-83
2021/03/07 10:01:57;;;;;;;12.40;9.32;;;;;;;1.93;95.44;102198.28;4983452;28;20435;-82
2021/03/07 10:04:34;;;;;;;13.10;9.63;;;;;;;2.07;94.95;102194.94;4975464;28;20122;-80
2021/03/07 10:07:01;;;;;;;14.30;9.10;;;;;;;2.16;93.70;102194.50;4969403;28;20055;-79
2021/03/07 10:09:27;;;;;;;13.80;8.27;;;;;;;2.36;93.09;102189.06;4981576;28;20117;-81
2021/03/07 10:11:59;;;;;;;12.20;7.28;;;;;;;2.53;90.77;102190.84;4973166;28;20049;-78
2021/03/07 10:14:28;;;;;;;11.73;7.18;;;;;;;2.60;89.57;102194.06;4969003;28;20046;-79
2021/03/07 10:16:54;;;;;;;11.38;7.43;;;;;;;2.65;86.83;102189.38;4989101;28;20046;-83
2021/03/07 10:19:20;;;;;;;8.65;5.97;;;;;;;2.78;87.97;102182.50;4984281;28;20133;-80
2021/03/07 10:21:46;;;;;;;8.10;4.60;;;;;;;2.84;83.82;102184.81;4984394;28;20062;-81
2021/03/07 10:24:13;;;;;;;11.20;4.85;;;;;;;2.93;83.68;102187.00;4986638;28;20047;-80
2021/03/07 10:26:40;;;;;;;8.25;5.47;;;;;;;3.12;84.15;102176.28;4986804;28;20402;-83
2021/03/07 10:29:39;;;;;;;7.55;4.88;;;;;;;3.31;80.81;102188.53;4971908;28;20436;-81
2021/03/07 10:32:19;;;;;;;4.03;2.72;;;;;;;3.38;77.10;102180.16;4947620;28;20073;-82
2021/03/07 10:34:53;;;;;;;9.90;6.63;;;;;;;3.43;79.24;102171.13;4991862;28;20490;-82
2021/03/07 10:37:38;;;;;;;6.43;3.55;;;;;;;3.38;77.14;102177.50;5002778;28;20488;-80
2021/03/07 10:40:12;;;;;;;4.85;2.42;;;;;;;3.44;73.95;102180.78;4986795;28;20061;-81
2021/03/07 10:42:39;;;;;;;8.23;4.32;;;;;;;3.53;75.28;102167.00;4997143;28;29012;-80
2021/03/07 10:45:12;;;;;;;4.45;2.30;;;;;;;3.63;72.25;102170.84;4984844;28;20026;-81
2021/03/07 10:47:37;;;;;;;4.78;2.33;;;;;;;3.66;73.72;102160.06;4984402;28;20046;-83
2021/03/07 10:50:04;;;;;;;6.75;3.97;;;;;;;3.56;71.41;102165.00;4985087;28;20418;-82
2021/03/07 10:52:29;;;;;;;7.25;2.33;;;;;;;3.64;72.37;102161.94;4982130;28;20042;-81
2021/03/07 10:54:55;;;;;;;5.65;2.33;;;;;;;3.72;70.38;102158.88;4984081;28;20066;-80
2021/03/07 10:57:20;;;;;;;6.07;3.75;;;;;;;3.86;72.52;102153.63;4986082;28;20589;-80
2021/03/07 10:59:51;;;;;;;4.80;2.50;;;;;;;3.89;71.21;102144.63;4989697;28;20046;-83
2021/03/07 11:02:16;;;;;;;2.75;1.30;;;;;;;3.92;70.17;102145.31;4992194;28;20093;-82
2021/03/07 11:04:45;;;;;;;4.00;2.10;;;;;;;3.98;70.74;102144.94;4993846;28;20442;-80
2021/03/07 11:07:11;;;;;;;8.30;4.30;;;;;;;4.22;71.92;102149.78;4986544;28;20502;-81
2021/03/07 11:09:36;;;;;;;8.52;3.47;;;;;;;4.28;69.87;102142.28;5004195;28;20042;-82
2021/03/07 11:12:01;;;;;;;6.18;2.33;;;;;;;4.33;67.20;102138.53;4988368;28;20053;-82
2021/03/07 11:14:27;;;;;;;4.38;2.80;;;;;;;4.42;69.94;102144.13;4987949;28;20047;-81
2021/03/07 11:16:52;;;;;;;5.40;3.25;;;;;;;4.36;69.36;102138.34;4982019;28;20046;-83